DeKalb Peachtree Airport
KPDK : now visible

Aeroporto :











RITROVATECI SU...

 
LOGIN :

Iscrizione | Disclaimer

   EN    FR    IT 

 









Sommario :    VFR   VFR Marginale   IFR   IFR Intensivo   IFR Molto Intensivo
Visibilità : 
Base nubi : 
>= 8 km
>= 3000ft
5 / 8 km
1000 / 3000 ft
1500m / 5 km
500 / 1000 ft
800 / 1500m
200 / 500 ft
< 800m
< 200 ft
Simboli :   Temporali  Nebbia  Neve Forte  Precipitazioni Forti  Vento > 20 kt






- Altitudine del aeroporto : 1003 ft


KPDK - DeKalb Peachtree

ULTIMO METAR :
  • 040253Z 00000KT 10SM CLR 14/04 A2996 RMK AO2 SLP142 T01390039 50006

METARs OBSOLETI :
  • 040153Z 32004KT 10SM CLR 16/04 A2997 RMK AO2 SLP143 T01610039
  • 040053Z 29005KT 10SM CLR 18/02 A2995 RMK AO2 SLP140 T01830022

TAF KPDK
Valido dal 04 a 00 ore il 05 a 00 ore UTC


032329Z 0400/0424 29005KT P6SM FEW120 SCT250
FM040400 VRB03KT P6SM BKN120
FM041500 04005KT P6SM FEW100



MetMap, La meteo Aeronautica in un colpo d'occhio ! - Copyright ORBIFLY Dicembre 2007 - Disclaimer

ORBIFLY MET'MAP TEAM :

Programmazione e sviluppo : Alexandra Zaïnal
Concezione : Baudouin d'Aumeries
Aiuto per la programmazione : Marc-Olivier Méhu
Supporto tecnico e logistico : Manuel Goepfert
Aiuto per la traduzione : Arnaldo La Scala

Contatto : metmap@orbifly.com




FONTI E CREDITI :

   NOAA       Earth
Advisory